New Suffolk, New York
Current Conditions -  °F | °C
As of 7:53 AM on Sunday 23 Nov 2014 (Local Time) from KFOK Reporting Station
Overcast Overcast  
Wind Chill: 39°   Ceiling: 11000
Heat Index: 46°   Visibility: 10mi
Dew Point: 28°   Wind: 16mph
Humidity: 50%   Direction: 240°WSW
Pressure: 30.22"   Gusts: 23mph
Location:  40.99°N, 72.48°W
Report Text: KFOK 231253Z AUTO 24014G20KT 10SM OVC110 08/M02 A3022 RMK AO2 SLP233 T00781022 TSNO
Loading
Personal Weather Stations






























Interactive Weather Map New forecast layout! Learn more

10-Day Weather Forecast

Advertisements
Track Severe Weather on mobile